createdAt,value
2023-01-15T00:00:06.978Z,8.50
2023-01-15T00:03:59.591Z,8.30
2023-01-15T00:07:45.041Z,8.30
2023-01-15T00:11:51.094Z,8.10
2023-01-15T00:18:45.237Z,8.00
2023-01-15T00:22:16.020Z,7.90
2023-01-15T00:26:06.521Z,7.90
2023-01-15T00:30:15.908Z,7.90
2023-01-15T00:37:36.967Z,7.80
2023-01-15T00:41:01.301Z,7.70
2023-01-15T00:44:34.826Z,7.70
2023-01-15T00:51:48.623Z,7.70
2023-01-15T00:55:20.783Z,7.60
2023-01-15T00:58:42.113Z,7.70
2023-01-15T01:01:51.133Z,7.70
2023-01-15T01:12:20.261Z,7.60
2023-01-15T01:15:41.981Z,7.60
2023-01-15T01:18:52.661Z,7.60
2023-01-15T01:22:15.668Z,7.60
2023-01-15T01:25:45.051Z,7.60
2023-01-15T01:32:54.679Z,7.60
2023-01-15T01:36:06.835Z,7.60
2023-01-15T01:39:56.288Z,7.60
2023-01-15T01:43:56.589Z,7.60
2023-01-15T01:47:25.579Z,7.60
2023-01-15T01:50:50.998Z,7.60
2023-01-15T01:53:54.360Z,7.60
2023-01-15T01:57:13.486Z,7.60
2023-01-15T02:00:46.143Z,7.50
2023-01-15T02:03:58.424Z,7.60
2023-01-15T02:07:29.759Z,7.50
2023-01-15T02:10:37.625Z,7.50
2023-01-15T02:14:04.608Z,7.50
2023-01-15T02:17:26.704Z,7.50
2023-01-15T02:21:03.872Z,7.50
2023-01-15T02:24:27.261Z,7.50
2023-01-15T02:27:51.561Z,7.50
2023-01-15T02:31:21.137Z,7.50
2023-01-15T02:34:40.212Z,7.50
2023-01-15T02:38:15.051Z,7.50
2023-01-15T02:41:41.713Z,7.50
2023-01-15T02:45:03.602Z,7.50
2023-01-15T02:48:24.007Z,7.50
2023-01-15T02:51:37.129Z,7.50
2023-01-15T02:55:00.045Z,7.50
2023-01-15T02:58:23.423Z,7.50
2023-01-15T03:01:36.076Z,7.50
2023-01-15T03:04:44.220Z,7.50
2023-01-15T03:12:31.066Z,7.40
2023-01-15T03:16:15.641Z,7.40
2023-01-15T03:19:45.819Z,7.40
2023-01-15T03:23:00.866Z,7.40
2023-01-15T03:26:11.375Z,7.40
2023-01-15T03:29:18.939Z,7.40
2023-01-15T03:32:20.388Z,7.40
2023-01-15T03:35:59.770Z,7.40
2023-01-15T03:38:54.956Z,7.40
2023-01-15T03:42:42.163Z,7.40
2023-01-15T03:45:58.726Z,7.40
2023-01-15T03:49:34.469Z,7.40
2023-01-15T03:53:17.453Z,7.40
2023-01-15T04:00:03.084Z,7.40
2023-01-15T04:03:24.340Z,7.30
2023-01-15T04:06:26.595Z,7.30
2023-01-15T04:10:07.797Z,7.30
2023-01-15T04:13:04.250Z,7.30
2023-01-15T04:16:07.167Z,7.30
2023-01-15T04:19:03.527Z,7.40
2023-01-15T04:22:09.394Z,7.30
2023-01-15T04:25:29.752Z,7.30
2023-01-15T04:28:32.091Z,7.40
2023-01-15T04:31:58.724Z,7.30
2023-01-15T04:35:00.180Z,7.30
2023-01-15T04:38:03.495Z,7.30
2023-01-15T04:41:16.174Z,7.30
2023-01-15T04:44:22.773Z,7.30
2023-01-15T04:47:24.538Z,7.30
2023-01-15T04:50:19.419Z,7.30
2023-01-15T04:53:34.269Z,7.30
2023-01-15T04:56:43.554Z,7.30
2023-01-15T05:00:01.145Z,7.30
2023-01-15T05:02:53.393Z,7.30
2023-01-15T05:05:58.450Z,7.30
2023-01-15T05:08:59.705Z,7.30
2023-01-15T05:12:08.642Z,7.30
2023-01-15T05:15:05.191Z,7.30
2023-01-15T05:17:51.978Z,7.30
2023-01-15T05:20:41.155Z,7.20
2023-01-15T05:23:34.857Z,7.20
2023-01-15T05:26:23.055Z,7.30
2023-01-15T05:29:17.518Z,7.20
2023-01-15T05:32:09.638Z,7.20
2023-01-15T05:34:57.061Z,7.20
2023-01-15T05:37:47.905Z,7.20
2023-01-15T05:40:39.326Z,7.20
2023-01-15T05:43:26.736Z,7.20
2023-01-15T05:46:31.242Z,7.20
2023-01-15T05:49:24.620Z,7.20
2023-01-15T05:52:17.814Z,7.20
2023-01-15T05:55:10.548Z,7.20
2023-01-15T05:58:02.901Z,7.20
2023-01-15T06:00:52.608Z,7.20
2023-01-15T06:04:00.345Z,7.20
2023-01-15T06:06:53.935Z,7.20
2023-01-15T06:09:48.896Z,7.20
2023-01-15T06:12:48.519Z,7.20
2023-01-15T06:15:36.192Z,7.20
2023-01-15T06:18:36.883Z,7.20
2023-01-15T06:21:28.828Z,7.20
2023-01-15T06:24:18.095Z,7.20
2023-01-15T06:27:09.814Z,7.20
2023-01-15T06:30:05.010Z,7.20
2023-01-15T06:32:58.568Z,7.20
2023-01-15T06:35:45.952Z,7.20
2023-01-15T06:38:39.417Z,7.20
2023-01-15T06:41:46.086Z,7.20
2023-01-15T06:44:52.253Z,7.20
2023-01-15T06:47:41.046Z,7.10
2023-01-15T06:50:28.854Z,7.10
2023-01-15T06:53:31.562Z,7.10
2023-01-15T06:56:21.070Z,7.10
2023-01-15T06:59:14.333Z,7.20
2023-01-15T07:02:03.497Z,7.10
2023-01-15T07:04:54.203Z,7.10
2023-01-15T07:07:47.728Z,7.20
2023-01-15T07:10:50.386Z,7.10
2023-01-15T07:13:39.477Z,7.20
2023-01-15T07:16:32.781Z,7.10
2023-01-15T07:19:25.111Z,7.10
2023-01-15T07:22:13.240Z,7.10
2023-01-15T07:25:13.291Z,7.10
2023-01-15T07:28:05.523Z,7.10
2023-01-15T07:31:05.851Z,7.10
2023-01-15T07:33:55.699Z,7.10
2023-01-15T07:36:50.567Z,7.10
2023-01-15T07:40:52.167Z,7.10
2023-01-15T07:43:58.764Z,7.10
2023-01-15T07:47:07.050Z,7.10
2023-01-15T07:49:55.676Z,7.10
2023-01-15T07:52:43.791Z,7.10
2023-01-15T07:55:32.250Z,7.10
2023-01-15T07:58:19.595Z,7.10
2023-01-15T08:01:09.090Z,7.10
2023-01-15T08:03:57.795Z,7.10
2023-01-15T08:06:45.412Z,7.10
2023-01-15T08:09:33.120Z,7.00
2023-01-15T08:12:40.042Z,7.00
2023-01-15T08:15:40.271Z,7.00
2023-01-15T08:18:32.877Z,6.90
2023-01-15T08:21:31.125Z,6.90
2023-01-15T08:24:28.291Z,6.90
2023-01-15T08:27:22.645Z,6.90
2023-01-15T08:30:38.427Z,6.90
2023-01-15T08:33:32.783Z,6.90
2023-01-15T08:36:21.231Z,6.90
2023-01-15T08:39:08.108Z,6.90
2023-01-15T08:42:01.957Z,6.90
2023-01-15T08:44:55.415Z,6.90
2023-01-15T08:47:48.438Z,6.90
2023-01-15T08:50:41.360Z,6.90
2023-01-15T08:53:32.579Z,6.90
2023-01-15T08:56:26.795Z,6.90
2023-01-15T08:59:16.857Z,6.90
2023-01-15T09:02:09.834Z,6.90
2023-01-15T09:05:02.567Z,6.90
2023-01-15T09:07:49.837Z,6.90
2023-01-15T09:10:38.379Z,6.90
2023-01-15T09:13:27.168Z,6.90
2023-01-15T09:16:14.367Z,6.90
2023-01-15T09:19:01.559Z,6.90
2023-01-15T09:21:50.561Z,6.90
2023-01-15T09:24:37.720Z,6.90
2023-01-15T09:27:26.441Z,6.90
2023-01-15T09:30:21.878Z,6.90
2023-01-15T09:33:15.278Z,6.90
2023-01-15T09:36:05.714Z,6.90
2023-01-15T09:39:04.301Z,6.90
2023-01-15T09:42:15.914Z,7.00
2023-01-15T09:45:21.604Z,7.00
2023-01-15T09:48:29.262Z,7.10
2023-01-15T09:51:29.923Z,7.10
2023-01-15T09:54:42.121Z,7.20
2023-01-15T09:57:34.491Z,7.20
2023-01-15T10:00:31.239Z,7.20
2023-01-15T10:03:50.636Z,7.30
2023-01-15T10:06:46.595Z,7.40
2023-01-15T10:09:41.797Z,7.40
2023-01-15T10:12:39.807Z,7.50
2023-01-15T10:15:40.357Z,7.60
2023-01-15T10:18:30.062Z,7.60
2023-01-15T10:21:37.357Z,7.70
2023-01-15T10:24:38.621Z,7.70
2023-01-15T10:27:33.192Z,7.70
2023-01-15T10:30:38.854Z,7.70
2023-01-15T10:34:04.317Z,7.70
2023-01-15T10:37:00.904Z,7.70
2023-01-15T10:40:07.045Z,7.80
2023-01-15T10:43:03.543Z,7.80
2023-01-15T10:46:33.383Z,7.80
2023-01-15T11:01:03.078Z,7.70
2023-01-15T11:03:50.801Z,7.70
2023-01-15T11:06:37.679Z,7.70
2023-01-15T11:09:32.189Z,7.70
2023-01-15T11:12:42.887Z,7.80
2023-01-15T11:15:47.513Z,7.80
2023-01-15T11:18:58.920Z,7.80
2023-01-15T11:21:45.841Z,7.80
2023-01-15T11:24:33.035Z,7.90
2023-01-15T11:27:25.595Z,7.90
2023-01-15T11:30:30.551Z,7.90
2023-01-15T11:33:25.091Z,7.90
2023-01-15T11:36:27.811Z,7.90
2023-01-15T11:39:26.972Z,7.80
2023-01-15T11:42:36.141Z,7.80
2023-01-15T11:45:45.358Z,7.80
2023-01-15T11:49:02.497Z,7.80
2023-01-15T11:51:51.058Z,7.80
2023-01-15T11:54:42.288Z,7.80
2023-01-15T11:57:33.271Z,7.80
2023-01-15T12:00:26.330Z,7.80
2023-01-15T12:03:19.982Z,7.80
2023-01-15T12:06:12.085Z,7.80
2023-01-15T12:09:11.386Z,7.80
2023-01-15T12:12:13.504Z,7.80
2023-01-15T12:15:33.423Z,7.80
2023-01-15T12:18:48.582Z,7.80
2023-01-15T12:22:04.499Z,7.80
2023-01-15T12:25:21.505Z,7.80
2023-01-15T12:28:15.804Z,7.80
2023-01-15T12:31:11.747Z,7.80
2023-01-15T12:34:06.209Z,7.80
2023-01-15T12:36:59.759Z,7.80
2023-01-15T12:39:53.044Z,7.70
2023-01-15T12:43:01.181Z,7.80
2023-01-15T12:45:57.232Z,7.80
2023-01-15T12:48:54.399Z,7.80
2023-01-15T12:51:52.515Z,7.80
2023-01-15T12:54:50.636Z,7.80
2023-01-15T12:57:43.602Z,7.80
2023-01-15T13:00:39.121Z,7.80
2023-01-15T13:03:35.783Z,7.80
2023-01-15T13:06:28.958Z,7.80
2023-01-15T13:09:40.465Z,7.80
2023-01-15T13:12:31.067Z,7.80
2023-01-15T13:15:28.565Z,7.80
2023-01-15T13:18:32.167Z,7.80
2023-01-15T13:21:24.955Z,7.80
2023-01-15T13:24:50.097Z,7.80
2023-01-15T13:27:55.870Z,7.80
2023-01-15T13:31:04.726Z,7.80
2023-01-15T13:34:02.520Z,7.80
2023-01-15T13:36:57.849Z,7.80
2023-01-15T13:39:52.816Z,7.80
2023-01-15T13:42:49.729Z,7.80
2023-01-15T13:45:40.888Z,7.80
2023-01-15T13:48:35.407Z,7.80
2023-01-15T13:51:37.375Z,7.80
2023-01-15T13:54:31.081Z,7.70
2023-01-15T13:57:35.688Z,7.70
2023-01-15T14:00:37.306Z,7.70
2023-01-15T14:03:30.210Z,7.70
2023-01-15T14:06:17.522Z,7.70
2023-01-15T14:09:05.274Z,7.70
2023-01-15T14:12:11.665Z,7.70
2023-01-15T14:15:30.556Z,7.70
2023-01-15T14:18:41.107Z,7.70
2023-01-15T14:21:45.812Z,7.70
2023-01-15T14:25:16.991Z,7.70
2023-01-15T14:28:42.390Z,7.70
2023-01-15T14:31:47.266Z,7.70
2023-01-15T14:34:37.612Z,7.70
2023-01-15T14:37:31.362Z,7.70
2023-01-15T14:40:25.024Z,7.70
2023-01-15T14:43:22.391Z,7.70
2023-01-15T14:46:29.960Z,7.70
2023-01-15T14:49:30.315Z,7.70
2023-01-15T14:52:24.827Z,7.70
2023-01-15T14:55:14.135Z,7.70
2023-01-15T14:58:08.526Z,7.60
2023-01-15T15:01:00.068Z,7.70
2023-01-15T15:03:55.096Z,7.60
2023-01-15T15:06:49.691Z,7.60
2023-01-15T15:09:44.016Z,7.60
2023-01-15T15:12:41.729Z,7.60
2023-01-15T15:15:43.583Z,7.60
2023-01-15T15:18:35.685Z,7.60
2023-01-15T15:21:28.068Z,7.60
2023-01-15T15:24:24.245Z,7.60
2023-01-15T15:27:17.878Z,7.60
2023-01-15T15:30:09.219Z,7.60
2023-01-15T15:32:56.619Z,7.60
2023-01-15T15:35:47.934Z,7.60
2023-01-15T15:38:34.795Z,7.60
2023-01-15T15:41:41.510Z,7.60
2023-01-15T15:44:54.505Z,7.60
2023-01-15T15:48:01.270Z,7.60
2023-01-15T15:50:49.635Z,7.60
2023-01-15T15:53:36.360Z,7.60
2023-01-15T15:56:23.400Z,7.50
2023-01-15T15:59:28.301Z,7.50
2023-01-15T16:02:23.804Z,7.50
2023-01-15T16:05:25.100Z,7.50
2023-01-15T16:08:20.184Z,7.50
2023-01-15T16:11:13.008Z,7.50
2023-01-15T16:14:05.806Z,7.50
2023-01-15T16:16:54.629Z,7.40
2023-01-15T16:19:44.463Z,7.40
2023-01-15T16:22:31.122Z,7.40
2023-01-15T16:25:25.620Z,7.50
2023-01-15T16:28:25.580Z,7.50
2023-01-15T16:31:16.546Z,7.50
2023-01-15T16:34:05.268Z,7.50
2023-01-15T16:36:53.239Z,7.50
2023-01-15T16:39:45.085Z,7.50
2023-01-15T16:42:37.531Z,7.50
2023-01-15T16:45:28.287Z,7.50
2023-01-15T16:48:29.839Z,7.40
2023-01-15T16:51:32.083Z,7.40
2023-01-15T16:54:46.427Z,7.40
2023-01-15T16:57:35.266Z,7.40
2023-01-15T17:00:32.697Z,7.40
2023-01-15T17:03:22.825Z,7.40
2023-01-15T17:06:16.024Z,7.30
2023-01-15T17:09:02.692Z,7.30
2023-01-15T17:11:53.926Z,7.30
2023-01-15T17:14:40.647Z,7.30
2023-01-15T17:17:29.933Z,7.30
2023-01-15T17:20:18.987Z,7.30
2023-01-15T17:23:13.956Z,7.30
2023-01-15T17:26:00.649Z,7.30
2023-01-15T17:28:49.467Z,7.20
2023-01-15T17:31:36.528Z,7.30
2023-01-15T17:34:25.116Z,7.20
2023-01-15T17:37:12.031Z,7.20
2023-01-15T17:39:58.499Z,7.20
2023-01-15T17:42:45.038Z,7.20
2023-01-15T17:45:34.844Z,7.20
2023-01-15T17:48:21.712Z,7.20
2023-01-15T17:51:13.616Z,7.20
2023-01-15T17:54:00.341Z,7.10
2023-01-15T17:57:04.966Z,7.10
2023-01-15T18:00:09.572Z,7.10
2023-01-15T18:03:15.876Z,7.10
2023-01-15T18:06:02.884Z,7.10
2023-01-15T18:08:56.491Z,7.10
2023-01-15T18:11:43.024Z,7.10
2023-01-15T18:14:29.503Z,7.10
2023-01-15T18:17:16.388Z,7.10
2023-01-15T18:20:05.727Z,7.00
2023-01-15T18:22:52.508Z,7.10
2023-01-15T18:25:45.831Z,7.00
2023-01-15T18:28:34.043Z,7.10
2023-01-15T18:31:20.831Z,7.00
2023-01-15T18:34:08.720Z,7.10
2023-01-15T18:36:56.982Z,7.00
2023-01-15T18:39:43.584Z,7.00
2023-01-15T18:42:49.444Z,7.10
2023-01-15T18:45:53.703Z,7.10
2023-01-15T18:48:40.447Z,7.10
2023-01-15T18:51:26.953Z,7.10
2023-01-15T18:54:15.385Z,7.00
2023-01-15T18:57:01.946Z,7.10
2023-01-15T18:59:48.448Z,7.00
2023-01-15T19:02:35.209Z,7.10
2023-01-15T19:05:22.061Z,7.10
2023-01-15T19:08:09.129Z,7.10
2023-01-15T19:10:57.318Z,7.10
2023-01-15T19:13:43.953Z,7.10
2023-01-15T19:16:59.296Z,7.10
2023-01-15T19:19:46.191Z,7.10
2023-01-15T19:22:50.806Z,7.10
2023-01-15T19:25:40.903Z,7.10
2023-01-15T19:28:31.273Z,7.10
2023-01-15T19:31:36.910Z,7.10
2023-01-15T19:34:33.696Z,7.10
2023-01-15T19:37:22.050Z,7.10
2023-01-15T19:40:12.831Z,7.10
2023-01-15T19:43:17.121Z,7.10
2023-01-15T19:46:26.326Z,7.10
2023-01-15T19:49:36.580Z,7.10
2023-01-15T19:52:35.878Z,7.10
2023-01-15T19:55:24.846Z,7.10
2023-01-15T19:58:14.496Z,7.10
2023-01-15T20:01:01.943Z,7.10
2023-01-15T20:03:50.527Z,7.10
2023-01-15T20:06:37.389Z,7.10
2023-01-15T20:09:24.132Z,7.10
2023-01-15T20:12:29.367Z,7.10
2023-01-15T20:15:16.302Z,7.10
2023-01-15T20:18:03.065Z,7.10
2023-01-15T20:20:51.141Z,7.10
2023-01-15T20:23:37.806Z,7.10
2023-01-15T20:26:26.330Z,7.10
2023-01-15T20:29:12.932Z,7.10
2023-01-15T20:31:59.530Z,7.10
2023-01-15T20:34:47.294Z,7.10
2023-01-15T20:37:35.646Z,7.10
2023-01-15T20:40:25.027Z,7.10
2023-01-15T20:43:29.556Z,7.10
2023-01-15T20:46:16.434Z,7.10
2023-01-15T20:49:21.072Z,7.10
2023-01-15T20:52:07.764Z,7.10
2023-01-15T20:54:56.073Z,7.10
2023-01-15T20:57:43.608Z,7.10
2023-01-15T21:00:31.696Z,7.10
2023-01-15T21:03:18.978Z,7.00
2023-01-15T21:06:07.063Z,7.00
2023-01-15T21:08:54.162Z,7.00
2023-01-15T21:11:42.355Z,7.00
2023-01-15T21:14:30.053Z,7.00
2023-01-15T21:17:16.995Z,7.00
2023-01-15T21:20:04.945Z,7.00
2023-01-15T21:22:51.474Z,7.00
2023-01-15T21:25:39.909Z,7.00
2023-01-15T21:28:28.339Z,7.00
2023-01-15T21:31:15.982Z,6.90
2023-01-15T21:34:02.438Z,7.00
2023-01-15T21:36:49.297Z,7.00
2023-01-15T21:39:37.862Z,6.90
2023-01-15T21:42:42.447Z,6.90
2023-01-15T21:45:30.703Z,7.00
2023-01-15T21:48:17.601Z,6.90
2023-01-15T21:51:06.511Z,6.90
2023-01-15T21:53:53.931Z,6.90
2023-01-15T21:56:40.670Z,6.90
2023-01-15T21:59:27.705Z,6.90
2023-01-15T22:02:20.293Z,6.90
2023-01-15T22:05:09.099Z,6.90
2023-01-15T22:07:56.194Z,6.90
2023-01-15T22:10:42.988Z,6.90
2023-01-15T22:13:29.897Z,6.90
2023-01-15T22:16:17.901Z,6.90
2023-01-15T22:19:06.308Z,6.90
2023-01-15T22:21:54.611Z,6.80
2023-01-15T22:24:42.045Z,6.80
2023-01-15T22:27:30.367Z,6.80
2023-01-15T22:30:18.329Z,6.80
2023-01-15T22:33:05.152Z,6.80
2023-01-15T22:35:59.813Z,6.80
2023-01-15T22:38:46.986Z,6.80
2023-01-15T22:41:51.229Z,6.70
2023-01-15T22:44:39.031Z,6.70
2023-01-15T22:47:25.854Z,6.70
2023-01-15T22:50:13.156Z,6.70
2023-01-15T22:53:01.048Z,6.70
2023-01-15T22:55:57.302Z,6.60
2023-01-15T22:58:55.572Z,6.70
2023-01-15T23:01:43.463Z,6.60
2023-01-15T23:04:30.475Z,6.60
2023-01-15T23:07:17.420Z,6.60
2023-01-15T23:10:08.103Z,6.50
2023-01-15T23:12:55.024Z,6.50
2023-01-15T23:15:41.904Z,6.50
2023-01-15T23:18:30.535Z,6.50
2023-01-15T23:21:22.038Z,6.40
2023-01-15T23:24:09.643Z,6.40
2023-01-15T23:26:57.629Z,6.40
2023-01-15T23:29:45.331Z,6.40
2023-01-15T23:32:32.117Z,6.30
2023-01-15T23:35:19.504Z,6.30
2023-01-15T23:38:08.599Z,6.30
2023-01-15T23:40:55.933Z,6.20
2023-01-15T23:44:02.632Z,6.20
2023-01-15T23:46:49.284Z,6.10
2023-01-15T23:49:36.168Z,6.10
2023-01-15T23:52:23.136Z,6.10
2023-01-15T23:55:11.151Z,6.00
2023-01-15T23:57:58.042Z,6.00
